Time;durP1;ratioP1;P1;durP2;ratioP2;P2;SDS_P1;SDS_P2;PMS_P1;PMS_P2;Temp;Humidity;BMP_temperature;BMP_pressure;BME280_temperature;BME280_humidity;BME280_pressure;Samples;Min_cycle;Max_cycle;Signal;HPM_P1;HPM_P2
2022/09/12 06:32:43;;;;;;;;;9.33;9.33;;;;;20.96;55.49;101073.72;5102611;27;46866;-78
2022/09/12 06:35:08;;;;;;;;;10.00;10.00;;;;;21.09;55.40;101072.56;5096288;27;45531;-77
2022/09/12 06:37:34;;;;;;;;;12.67;9.00;;;;;21.28;55.65;101080.63;5091621;27;45862;-77
2022/09/12 06:39:59;;;;;;;;;10.33;10.00;;;;;21.51;55.22;101082.16;5103657;27;50977;-77
2022/09/12 06:42:25;;;;;;;;;10.00;9.67;;;;;21.75;54.55;101078.97;5100020;27;48476;-77
2022/09/12 06:44:50;;;;;;;;;9.33;9.33;;;;;22.04;53.97;101087.94;5094962;27;45637;-77
2022/09/12 06:47:16;;;;;;;;;10.00;9.33;;;;;22.29;53.44;101070.16;5094922;27;45492;-76
2022/09/12 06:49:41;;;;;;;;;10.00;9.00;;;;;22.56;53.16;101068.41;5095480;27;53031;-77
2022/09/12 06:52:06;;;;;;;;;7.67;7.67;;;;;22.82;52.78;101081.19;5106865;27;45471;-77
2022/09/12 06:54:32;;;;;;;;;9.00;8.67;;;;;23.05;51.86;101069.84;5108644;27;46082;-77
2022/09/12 06:56:57;;;;;;;;;12.33;11.33;;;;;23.27;51.38;101064.94;5105841;27;45515;-78
2022/09/12 06:59:22;;;;;;;;;10.33;10.33;;;;;23.47;51.44;101079.16;5104833;27;45418;-78
2022/09/12 07:01:47;;;;;;;;;8.00;8.00;;;;;23.64;50.50;101074.69;5111516;27;46056;-78
2022/09/12 07:04:13;;;;;;;;;10.67;10.67;;;;;23.82;50.59;101071.88;5110108;27;47579;-78
2022/09/12 07:06:40;;;;;;;;;11.67;8.00;;;;;24.01;49.99;101077.19;5103329;27;45427;-78
2022/09/12 07:09:09;;;;;;;;;8.67;7.67;;;;;24.14;49.54;101071.31;5098112;27;46108;-78
2022/09/12 07:11:36;;;;;;;;;8.00;8.00;;;;;24.26;49.21;101072.72;5094737;27;46152;-81
2022/09/12 07:14:04;;;;;;;;;9.00;8.33;;;;;24.35;49.26;101070.88;5095089;27;45462;-80
2022/09/12 07:16:29;;;;;;;;;10.00;9.67;;;;;24.43;48.77;101075.47;5098166;27;45574;-78
2022/09/12 07:19:03;;;;;;;;;11.67;9.67;;;;;24.53;48.56;101078.03;5092585;27;46287;-79
2022/09/12 07:21:29;;;;;;;;;9.33;8.00;;;;;24.63;48.64;101084.16;5082342;27;45708;-77
2022/09/12 07:23:56;;;;;;;;;10.33;10.33;;;;;24.72;48.46;101074.16;5091802;27;45591;-79
2022/09/12 07:26:23;;;;;;;;;9.00;9.00;;;;;24.80;47.99;101076.03;5092196;27;45536;-79
2022/09/12 07:28:55;;;;;;;;;9.67;9.67;;;;;24.85;48.17;101079.97;5089724;27;45764;-80
2022/09/12 07:31:23;;;;;;;;;10.00;9.33;;;;;24.92;47.59;101076.56;5088477;27;47177;-80
2022/09/12 07:33:49;;;;;;;;;7.67;7.00;;;;;24.98;47.66;101071.28;5091284;27;45568;-80
2022/09/12 07:36:17;;;;;;;;;8.00;7.00;;;;;25.05;47.50;101066.03;5093322;27;45515;-78
2022/09/12 07:38:42;;;;;;;;;7.67;7.67;;;;;25.10;47.37;101071.81;5094756;27;45753;-78
2022/09/12 07:41:22;;;;;;;;;7.33;7.00;;;;;25.18;47.09;101070.94;5094618;27;46377;-78
2022/09/12 07:43:51;;;;;;;;;8.00;8.00;;;;;25.23;46.76;101068.59;5084864;27;45794;-78
2022/09/12 07:46:16;;;;;;;;;7.00;7.00;;;;;25.29;46.81;101069.75;5080159;27;45678;-76
2022/09/12 07:48:41;;;;;;;;;8.33;8.00;;;;;25.35;46.83;101070.94;5092055;27;46075;-76
2022/09/12 07:51:10;;;;;;;;;7.00;7.00;;;;;25.39;46.90;101064.97;5080885;27;47127;-76
2022/09/12 07:53:40;;;;;;;;;7.00;7.00;;;;;25.43;46.35;101064.63;5080987;27;45720;-76
2022/09/12 07:56:09;;;;;;;;;7.33;7.33;;;;;25.45;46.29;101071.56;5074631;27;45732;-78
2022/09/12 07:58:35;;;;;;;;;5.33;5.33;;;;;25.48;46.12;101076.69;5078794;27;45449;-77
2022/09/12 08:01:12;;;;;;;;;9.00;9.00;;;;;25.52;45.90;101067.16;5083990;27;47240;-77
2022/09/12 08:03:40;;;;;;;;;8.67;8.67;;;;;25.57;46.31;101071.22;5078824;27;45628;-77
2022/09/12 08:06:11;;;;;;;;;7.00;6.00;;;;;25.63;45.61;101076.00;5074284;27;45661;-78
2022/09/12 08:08:37;;;;;;;;;6.67;6.00;;;;;25.67;46.22;101073.75;5082920;27;45650;-82
2022/09/12 08:11:05;;;;;;;;;8.33;8.33;;;;;25.70;46.43;101068.81;5079476;27;46978;-80
2022/09/12 08:13:33;;;;;;;;;7.00;6.33;;;;;25.72;45.82;101063.19;5079594;27;46891;-79
2022/09/12 08:16:00;;;;;;;;;7.67;7.67;;;;;25.73;45.83;101063.03;5080553;27;46408;-79
2022/09/12 08:18:27;;;;;;;;;7.67;7.00;;;;;25.73;45.67;101064.91;5081080;27;45811;-81
2022/09/12 08:21:00;;;;;;;;;7.00;7.00;;;;;25.73;45.69;101064.91;5078636;27;46237;-78
2022/09/12 08:23:27;;;;;;;;;6.67;6.67;;;;;25.74;45.62;101063.88;5075642;27;45545;-75
2022/09/12 08:25:57;;;;;;;;;7.33;7.33;;;;;25.78;45.59;101062.50;5081638;27;45497;-76
2022/09/12 08:28:24;;;;;;;;;6.33;6.00;;;;;25.82;45.71;101065.72;5078820;27;45618;-76
2022/09/12 08:30:49;;;;;;;;;8.33;8.00;;;;;25.83;44.99;101065.53;5079215;27;45972;-76
2022/09/12 08:33:14;;;;;;;;;7.00;7.00;;;;;25.88;45.44;101067.72;5080781;27;45758;-78
2022/09/12 08:35:40;;;;;;;;;7.00;7.00;;;;;25.88;45.35;101070.44;5080803;27;45505;-78
2022/09/12 08:38:05;;;;;;;;;8.00;8.00;;;;;25.90;45.62;101069.25;5080820;27;45556;-78
2022/09/12 08:40:37;;;;;;;;;6.00;6.00;;;;;25.95;45.40;101065.97;5078500;27;49513;-78
2022/09/12 08:43:34;;;;;;;;;7.00;7.00;;;;;25.98;45.26;101062.91;5087184;27;46145;-79
2022/09/12 08:46:20;;;;;;;;;6.00;6.00;;;;;25.99;45.18;101047.47;5077545;27;45519;-77
2022/09/12 08:48:46;;;;;;;;;7.67;5.67;;;;;26.02;44.73;101057.97;5080101;27;45723;-74
2022/09/12 08:51:15;;;;;;;;;5.33;5.33;;;;;26.05;45.19;101069.38;5079690;27;47054;-76
2022/09/12 08:53:42;;;;;;;;;7.00;5.33;;;;;26.10;44.84;101067.94;5078801;27;45889;-74
2022/09/12 08:56:10;;;;;;;;;5.33;5.33;;;;;26.14;44.59;101069.28;5095415;27;46978;-74
2022/09/12 08:58:42;;;;;;;;;5.33;5.33;;;;;26.17;44.55;101069.78;5080180;27;45844;-83
2022/09/12 09:01:19;;;;;;;;;7.67;7.67;;;;;26.16;44.65;101068.09;5079693;27;45525;-78
2022/09/12 09:04:14;;;;;;;;;7.00;7.00;;;;;26.14;44.78;101072.00;5080076;27;45562;-77
2022/09/12 09:07:00;;;;;;;;;6.67;6.67;;;;;26.19;44.91;101066.88;5079728;27;45517;-76
2022/09/12 09:09:41;;;;;;;;;6.67;6.67;;;;;26.34;44.67;101063.44;5079724;27;45556;-72
2022/09/12 09:12:35;;;;;;;;;7.33;7.00;;;;;26.47;44.95;101062.81;5077223;27;46112;-76
2022/09/12 09:15:23;;;;;;;;;6.67;6.67;;;;;26.56;44.68;101054.44;5076431;27;45603;-77
2022/09/12 09:17:57;;;;;;;;;7.00;5.33;;;;;26.66;44.05;101042.47;5079267;27;45520;-76
2022/09/12 09:20:50;;;;;;;;;7.67;6.33;;;;;26.76;44.22;101043.03;5080173;27;46828;-76
2022/09/12 09:23:25;;;;;;;;;8.00;7.00;;;;;26.81;44.02;101032.44;5077525;27;47620;-76
2022/09/12 09:26:09;;;;;;;;;6.00;6.00;;;;;26.88;43.90;101040.72;5077106;27;45514;-78
2022/09/12 09:28:45;;;;;;;;;7.33;6.00;;;;;26.93;43.38;101041.06;5079254;27;45559;-76
2022/09/12 09:31:15;;;;;;;;;8.67;6.67;;;;;26.95;43.79;101035.44;5078575;27;45596;-76
2022/09/12 09:33:42;;;;;;;;;5.00;5.00;;;;;26.95;43.30;101029.97;5080311;27;45839;-76
2022/09/12 09:36:16;;;;;;;;;5.67;5.67;;;;;26.97;43.85;101030.63;5081479;27;45575;-79
2022/09/12 09:39:09;;;;;;;;;7.33;6.33;;;;;26.96;43.04;101024.34;5075325;27;46062;-80
2022/09/12 09:41:53;;;;;;;;;5.00;5.00;;;;;26.96;43.04;101026.22;5082815;27;46787;-78
2022/09/12 09:44:19;;;;;;;;;5.67;5.33;;;;;26.94;43.13;101031.03;5079061;27;45563;-80
2022/09/12 09:46:44;;;;;;;;;4.33;4.33;;;;;26.93;42.83;101029.31;5079403;27;45463;-80
2022/09/12 09:49:13;;;;;;;;;5.33;5.33;;;;;26.94;42.97;101029.13;5077689;27;46008;-79
2022/09/12 09:51:41;;;;;;;;;6.33;5.33;;;;;26.94;43.63;101028.28;5078005;27;46500;-77
2022/09/12 09:54:15;;;;;;;;;5.00;5.00;;;;;26.93;43.03;101019.28;5074918;27;47140;-77
2022/09/12 09:56:41;;;;;;;;;0.00;0.00;;;;;26.93;43.35;101016.53;5084098;27;45438;-78
2022/09/12 09:59:29;;;;;;;;;6.00;6.00;;;;;26.93;43.61;101016.53;5086737;27;45405;-78
2022/09/12 10:02:02;;;;;;;;;7.00;7.00;;;;;26.92;43.01;101013.97;5075862;27;45881;-77
2022/09/12 10:04:34;;;;;;;;;6.00;6.00;;;;;26.90;43.61;101013.31;5076552;27;46511;-78
2022/09/12 10:07:03;;;;;;;;;4.67;4.67;;;;;26.89;43.52;101006.19;5074806;27;45479;-78
2022/09/12 10:09:34;;;;;;;;;5.00;5.00;;;;;26.87;43.19;101000.06;5077550;27;47013;-76
2022/09/12 10:12:18;;;;;;;;;6.67;5.33;;;;;26.88;43.11;100994.44;5073091;27;45693;-78
2022/09/12 10:14:59;;;;;;;;;5.33;5.33;;;;;26.91;43.25;101004.13;5077104;27;45547;-78
2022/09/12 10:17:41;;;;;;;;;7.00;7.00;;;;;26.93;43.10;101000.19;5075609;27;45584;-79
2022/09/12 10:20:35;;;;;;;;;5.00;5.00;;;;;26.96;42.99;100980.78;5077697;27;45517;-76
2022/09/12 10:23:32;;;;;;;;;5.67;5.67;;;;;27.01;43.11;100979.38;5069146;27;45565;-77
2022/09/12 10:26:02;;;;;;;;;4.67;4.67;;;;;27.03;43.31;100971.84;5078021;27;45702;-77
2022/09/12 10:28:36;;;;;;;;;5.00;5.00;;;;;27.03;43.52;100983.59;5076619;27;46036;-76
2022/09/12 10:31:03;;;;;;;;;5.00;5.00;;;;;27.05;42.79;100980.69;5075489;27;45657;-77
2022/09/12 10:33:29;;;;;;;;;6.00;6.00;;;;;27.06;42.73;100983.22;5074751;27;45651;-78
2022/09/12 10:35:55;;;;;;;;;5.33;5.33;;;;;27.09;42.68;100982.00;5082181;27;45552;-79
2022/09/12 10:38:25;;;;;;;;;7.00;5.67;;;;;27.11;42.74;100985.38;5081653;27;45331;-80
2022/09/12 10:41:03;;;;;;;;;6.00;6.00;;;;;27.13;42.74;100982.47;5091971;27;45441;-77
2022/09/12 10:43:34;;;;;;;;;6.00;6.00;;;;;27.14;43.13;100986.91;5089638;27;45409;-78
2022/09/12 10:46:21;;;;;;;;;7.00;7.00;;;;;27.16;42.81;100988.41;5095593;27;45365;-78
2022/09/12 10:48:51;;;;;;;;;4.00;4.00;;;;;27.21;42.69;100976.91;5095708;27;45367;-78
2022/09/12 10:51:22;;;;;;;;;3.67;3.67;;;;;27.24;43.15;100971.09;5087426;27;45449;-77
2022/09/12 10:53:50;;;;;;;;;6.00;6.00;;;;;27.29;43.04;100973.25;5097549;27;45683;-77
2022/09/12 10:56:22;;;;;;;;;4.33;4.33;;;;;27.31;42.83;100965.75;5091781;27;46782;-77
2022/09/12 10:59:05;;;;;;;;;5.33;5.00;;;;;27.35;42.45;100965.16;5089228;27;45736;-77
2022/09/12 11:01:30;;;;;;;;;6.33;6.33;;;;;27.37;42.60;100967.72;5090187;27;45615;-77
2022/09/12 11:04:15;;;;;;;;;7.00;7.00;;;;;27.42;42.66;100970.72;5092564;27;45752;-77
2022/09/12 11:07:03;;;;;;;;;5.33;4.33;;;;;27.44;42.75;100973.25;5094461;27;45828;-78
2022/09/12 11:09:45;;;;;;;;;5.00;5.00;;;;;27.44;42.65;100970.53;5087468;27;45449;-77
2022/09/12 11:12:22;;;;;;;;;8.33;7.00;;;;;27.41;42.09;100962.72;5087825;27;45470;-75
2022/09/12 11:15:25;;;;;;;;;6.00;5.00;;;;;27.42;42.09;100965.25;5093267;27;45363;-77
2022/09/12 11:17:57;;;;;;;;;4.67;4.67;;;;;27.44;42.06;100968.66;5090049;27;46174;-76
2022/09/12 11:20:41;;;;;;;;;4.33;4.33;;;;;27.46;42.25;100958.41;5095393;27;45921;-76
2022/09/12 11:23:16;;;;;;;;;7.33;6.00;;;;;27.50;41.79;100964.31;5092507;27;45390;-77
2022/09/12 11:26:21;;;;;;;;;5.00;4.00;;;;;27.51;41.89;100970.63;5091853;27;45505;-77
2022/09/12 11:29:01;;;;;;;;;3.33;3.33;;;;;27.54;42.51;100956.63;5093226;27;45474;-77
2022/09/12 11:31:38;;;;;;;;;6.33;6.00;;;;;27.55;42.13;100950.94;5092142;27;45858;-77
2022/09/12 11:34:09;;;;;;;;;5.33;5.33;;;;;27.57;41.94;100948.91;5080455;27;45443;-77
2022/09/12 11:36:52;;;;;;;;;3.00;3.00;;;;;27.57;41.72;100938.00;5097265;27;45464;-77
2022/09/12 11:39:37;;;;;;;;;4.33;4.33;;;;;27.56;41.94;100919.94;5087415;27;47410;-79
2022/09/12 11:42:09;;;;;;;;;4.67;4.67;;;;;27.58;42.05;100917.00;5090212;27;45324;-82
2022/09/12 11:44:40;;;;;;;;;5.00;4.33;;;;;27.62;41.99;100919.22;5097020;27;45515;-77
2022/09/12 11:47:13;;;;;;;;;3.00;3.00;;;;;27.62;41.68;100911.03;5093745;27;45491;-78
2022/09/12 11:49:49;;;;;;;;;5.67;5.67;;;;;27.67;41.45;100906.88;5095872;27;46142;-78
2022/09/12 11:52:28;;;;;;;;;6.00;6.00;;;;;27.69;41.96;100910.25;5100227;27;45540;-81
2022/09/12 11:55:02;;;;;;;;;5.33;4.00;;;;;27.72;42.02;100912.59;5093573;27;45427;-77
2022/09/12 11:57:32;;;;;;;;;5.67;5.67;;;;;27.69;41.47;100904.78;5083032;27;45545;-77
2022/09/12 12:00:03;;;;;;;;;5.33;5.33;;;;;27.72;42.09;100923.50;5102368;27;46535;-82
2022/09/12 12:02:35;;;;;;;;;3.67;3.67;;;;;27.69;41.48;100911.09;5093309;27;45632;-74
2022/09/12 12:05:19;;;;;;;;;4.00;4.00;;;;;27.67;41.82;100912.34;5086646;27;45304;-76
2022/09/12 12:07:56;;;;;;;;;4.00;4.00;;;;;27.67;41.34;100909.59;5087889;27;45448;-77
2022/09/12 12:10:23;;;;;;;;;5.00;4.00;;;;;27.69;41.39;100905.66;5091621;27;47135;-77
2022/09/12 12:12:49;;;;;;;;;4.00;4.00;;;;;27.71;41.36;100914.47;5084768;27;45518;-78
2022/09/12 12:15:16;;;;;;;;;4.00;3.00;;;;;27.73;41.76;100912.41;5090195;27;45508;-80
2022/09/12 12:17:41;;;;;;;;;4.33;4.00;;;;;27.75;41.02;100896.69;5092067;27;45427;-79
2022/09/12 12:20:16;;;;;;;;;3.67;3.67;;;;;27.76;41.44;100897.53;5087029;27;45918;-79
2022/09/12 12:22:53;;;;;;;;;4.33;4.33;;;;;27.76;40.98;100894.81;5083553;27;45457;-79
2022/09/12 12:25:18;;;;;;;;;4.00;4.00;;;;;27.77;41.68;100893.78;5120988;27;45469;-78
2022/09/12 12:27:45;;;;;;;;;2.67;2.67;;;;;27.78;41.38;100894.63;5085596;27;45456;-78
2022/09/12 12:30:55;;;;;;;;;4.00;4.00;;;;;27.80;41.53;100904.31;5082945;27;46434;-78
2022/09/12 12:33:20;;;;;;;;;3.67;3.67;;;;;27.81;41.10;100897.81;5051730;28;45568;-77
2022/09/12 12:36:01;;;;;;;;;4.67;4.67;;;;;27.83;41.61;100911.25;5052955;28;45717;-78
2022/09/12 12:38:30;;;;;;;;;2.33;2.33;;;;;27.82;40.75;100902.22;5049152;28;45438;-79
2022/09/12 12:41:16;;;;;;;;;3.00;3.00;;;;;27.82;41.40;100907.66;5051898;28;45562;-79
2022/09/12 12:43:45;;;;;;;;;2.67;2.33;;;;;27.83;41.15;100906.63;5053095;28;45501;-79
2022/09/12 12:46:16;;;;;;;;;4.00;3.00;;;;;27.86;40.93;100902.66;5053224;28;45472;-78
2022/09/12 12:48:50;;;;;;;;;4.00;4.00;;;;;27.86;40.81;100905.38;5051526;28;45542;-78
2022/09/12 12:51:27;;;;;;;;;3.00;3.00;;;;;27.90;40.53;100908.59;5052706;28;45399;-80
2022/09/12 12:53:53;;;;;;;;;4.00;4.00;;;;;27.90;40.88;100900.41;5052836;28;45428;-79
2022/09/12 12:56:37;;;;;;;;;4.00;3.67;;;;;27.92;40.85;100898.31;5044855;28;46058;-80
2022/09/12 12:59:18;;;;;;;;;3.33;3.33;;;;;27.93;41.39;100889.94;5052580;28;45429;-80
2022/09/12 13:01:52;;;;;;;;;4.00;4.00;;;;;27.95;41.05;100882.41;5051366;28;45627;-80
2022/09/12 13:04:22;;;;;;;;;4.00;3.00;;;;;27.98;40.39;100873.84;5040540;28;45681;-80
2022/09/12 13:07:06;;;;;;;;;0.33;0.33;;;;;28.01;40.54;100881.66;5052690;28;45426;-80
2022/09/12 13:09:32;;;;;;;;;3.33;3.33;;;;;28.02;40.71;100877.88;5085776;27;45732;-80
2022/09/12 13:12:03;;;;;;;;;3.00;3.00;;;;;28.03;40.43;100875.97;5094868;27;45672;-79
2022/09/12 13:14:50;;;;;;;;;3.00;2.33;;;;;28.02;40.65;100879.75;5093596;27;45403;-76
2022/09/12 13:17:30;;;;;;;;;2.00;2.00;;;;;27.97;41.01;100877.63;5093629;27;45584;-76
2022/09/12 13:20:12;;;;;;;;;2.67;2.67;;;;;28.02;40.52;100879.75;5089286;27;45414;-76
2022/09/12 13:22:43;;;;;;;;;2.67;2.67;;;;;27.98;40.26;100878.44;5090934;27;46250;-77
2022/09/12 13:25:33;;;;;;;;;4.00;4.00;;;;;27.95;40.35;100874.22;5094958;27;45918;-75
2022/09/12 13:28:01;;;;;;;;;3.00;3.00;;;;;27.94;40.23;100877.13;5086222;27;45478;-76
2022/09/12 13:30:30;;;;;;;;;5.33;4.00;;;;;27.93;40.39;100861.81;5091431;27;45958;-79
2022/09/12 13:33:01;;;;;;;;;4.33;3.00;;;;;27.96;40.71;100847.81;5091051;27;45375;-75
2022/09/12 13:35:58;;;;;;;;;3.67;3.67;;;;;27.97;40.79;100842.16;5094947;27;45369;-75
2022/09/12 13:38:43;;;;;;;;;3.00;3.00;;;;;27.99;41.18;100833.75;5099298;27;45429;-76
2022/09/12 13:41:28;;;;;;;;;4.67;3.00;;;;;28.02;40.60;100836.09;5094510;27;45402;-75
2022/09/12 13:43:53;;;;;;;;;3.33;3.00;;;;;28.04;40.74;100831.31;5092800;27;46313;-75
2022/09/12 13:46:28;;;;;;;;;2.33;2.33;;;;;28.06;40.48;100831.09;5094262;27;45427;-75
2022/09/12 13:48:55;;;;;;;;;7.00;4.67;;;;;28.07;40.46;100825.44;5085279;27;45434;-75
2022/09/12 13:51:25;;;;;;;;;3.67;3.67;;;;;28.10;40.01;100829.66;5090993;27;45473;-75
2022/09/12 13:53:55;;;;;;;;;3.00;3.00;;;;;28.11;40.62;100824.00;5082653;27;46492;-75
2022/09/12 13:56:20;;;;;;;;;4.00;4.00;;;;;28.12;40.35;100822.13;5084355;27;45481;-76
2022/09/12 13:58:56;;;;;;;;;3.00;2.00;;;;;28.11;40.55;100820.41;5083104;27;45437;-77
2022/09/12 14:01:24;;;;;;;;;5.00;3.33;;;;;28.11;40.70;100818.53;5082293;27;45473;-76
2022/09/12 14:06:48;;;;;;;;;2.67;2.67;;;;;28.13;40.83;100824.63;5090882;27;45366;-77
2022/09/12 14:09:38;;;;;;;;;3.00;3.00;;;;;28.13;40.66;100818.34;5084282;27;45684;-76
2022/09/12 14:12:17;;;;;;;;;3.00;3.00;;;;;28.15;40.17;100813.53;5092623;27;45593;-75
2022/09/12 14:14:42;;;;;;;;;3.00;3.00;;;;;28.17;40.31;100805.16;5087103;27;47255;-76
2022/09/12 14:17:35;;;;;;;;;3.00;3.00;;;;;28.18;40.57;100799.50;5087397;27;45378;-76
2022/09/12 14:20:05;;;;;;;;;3.00;3.00;;;;;28.10;40.41;100794.19;5084043;27;45568;-75
2022/09/12 14:22:33;;;;;;;;;4.00;3.00;;;;;28.02;41.09;100785.13;5087473;27;45521;-77
2022/09/12 14:25:00;;;;;;;;;3.67;3.00;;;;;27.99;40.73;100785.50;5094148;27;46195;-78
2022/09/12 14:27:39;;;;;;;;;4.00;3.00;;;;;27.93;41.12;100783.56;5092039;27;45610;-77
2022/09/12 14:30:08;;;;;;;;;3.00;3.00;;;;;27.87;41.21;100787.06;5085842;27;45492;-78
2022/09/12 14:32:34;;;;;;;;;3.67;3.00;;;;;27.83;41.96;100785.81;5090066;27;45647;-77
2022/09/12 14:35:17;;;;;;;;;5.00;3.67;;;;;27.80;42.27;100780.72;5094783;27;45345;-80
2022/09/12 14:37:47;;;;;;;;;2.33;2.33;;;;;27.74;42.11;100780.47;5093885;27;45761;-79
2022/09/12 14:40:18;;;;;;;;;1.00;1.00;;;;;27.71;42.99;100780.88;5092339;27;45512;-78
2022/09/12 14:42:45;;;;;;;;;2.67;2.33;;;;;27.65;42.57;100772.63;5090469;27;45475;-77
2022/09/12 14:45:29;;;;;;;;;2.33;2.33;;;;;27.65;43.50;100775.34;5093269;27;45509;-78
2022/09/12 14:47:57;;;;;;;;;2.00;2.00;;;;;27.64;43.56;100770.94;5097249;27;45463;-77
2022/09/12 14:50:30;;;;;;;;;3.00;1.33;;;;;27.65;43.12;100761.72;5093555;27;45492;-77
2022/09/12 14:53:20;;;;;;;;;1.00;1.00;;;;;27.67;43.86;100768.66;5092782;27;45566;-78
2022/09/12 14:55:56;;;;;;;;;1.67;0.67;;;;;27.69;43.55;100765.75;5097121;27;47140;-78
2022/09/12 14:58:25;;;;;;;;;2.00;2.00;;;;;27.70;43.99;100768.28;5091975;27;45469;-79
2022/09/12 15:00:59;;;;;;;;;2.00;2.00;;;;;27.72;44.15;100762.63;5096954;27;45393;-79
2022/09/12 15:03:29;;;;;;;;;2.67;2.67;;;;;27.70;43.73;100762.81;5089574;27;45654;-78
2022/09/12 15:05:55;;;;;;;;;1.67;1.67;;;;;27.69;44.62;100765.75;5097077;27;47012;-78
2022/09/12 15:08:21;;;;;;;;;2.00;2.00;;;;;27.65;43.97;100759.00;5111512;27;45442;-78
2022/09/12 15:10:46;;;;;;;;;4.33;2.00;;;;;27.63;44.52;100751.03;5095516;27;45312;-79
2022/09/12 15:13:16;;;;;;;;;1.00;1.00;;;;;27.62;44.47;100742.00;5113424;27;45273;-76
2022/09/12 15:15:44;;;;;;;;;3.00;3.00;;;;;27.61;44.34;100737.59;5092312;27;45396;-76
2022/09/12 15:18:10;;;;;;;;;1.67;1.67;;;;;27.64;44.69;100730.03;5084809;27;45492;-76
2022/09/12 15:20:38;;;;;;;;;1.00;1.00;;;;;27.61;45.15;100747.66;5092336;27;45386;-77
2022/09/12 15:23:06;;;;;;;;;1.00;1.00;;;;;27.59;44.56;100746.97;5094591;27;45476;-75
2022/09/12 15:25:31;;;;;;;;;2.00;2.00;;;;;27.56;44.96;100733.72;5096416;27;45399;-75
2022/09/12 15:27:57;;;;;;;;;1.00;1.00;;;;;27.56;45.13;100740.03;5095916;27;45606;-77
2022/09/12 15:30:22;;;;;;;;;1.00;1.00;;;;;27.60;44.76;100735.06;5090191;27;45466;-77
2022/09/12 15:32:47;;;;;;;;;2.00;2.00;;;;;27.66;45.54;100728.00;5096138;27;45503;-76
2022/09/12 15:35:32;;;;;;;;;1.00;1.00;;;;;27.71;44.92;100742.69;5098840;27;45840;-77
2022/09/12 15:37:57;;;;;;;;;1.00;1.00;;;;;27.75;45.52;100738.53;5093035;27;45521;-78
2022/09/12 15:40:25;;;;;;;;;1.33;1.33;;;;;27.82;45.20;100749.50;5097498;27;45449;-76
2022/09/12 15:42:51;;;;;;;;;1.00;1.00;;;;;27.83;44.90;100731.25;5095532;27;45527;-75
2022/09/12 15:45:28;;;;;;;;;2.00;2.00;;;;;27.86;44.47;100736.31;5095046;27;47096;-76
2022/09/12 15:47:54;;;;;;;;;2.00;2.00;;;;;27.86;45.32;100739.88;5090702;27;45482;-75
2022/09/12 15:50:19;;;;;;;;;1.00;1.00;;;;;27.86;44.35;100733.56;5093247;27;45485;-77
2022/09/12 15:52:45;;;;;;;;;2.00;2.00;;;;;27.91;44.99;100738.44;5095258;27;45489;-75
2022/09/12 15:55:22;;;;;;;;;0.00;0.00;;;;;27.97;45.09;100738.50;5093246;27;46137;-76
2022/09/12 15:57:49;;;;;;;;;1.00;1.00;;;;;28.06;44.37;100736.47;5091802;27;45766;-77
2022/09/12 16:00:16;;;;;;;;;2.00;0.00;;;;;28.15;44.11;100732.53;5082953;27;45584;-76
2022/09/12 16:02:42;;;;;;;;;1.00;1.00;;;;;28.25;44.06;100731.38;5093101;27;45500;-76
2022/09/12 16:05:14;;;;;;;;;0.67;0.67;;;;;28.34;44.46;100738.34;5091306;27;45426;-76
2022/09/12 16:07:39;;;;;;;;;1.00;1.00;;;;;28.43;43.71;100727.22;5094985;27;45448;-76
2022/09/12 16:10:05;;;;;;;;;4.33;3.00;;;;;28.49;43.57;100729.19;5089300;27;45628;-78
2022/09/12 16:12:30;;;;;;;;;2.67;2.67;;;;;28.55;43.79;100728.34;5094970;27;45480;-76
2022/09/12 16:14:56;;;;;;;;;1.67;1.00;;;;;28.61;43.96;100721.25;5089146;27;46104;-79
2022/09/12 16:17:21;;;;;;;;;2.00;2.00;;;;;28.64;43.80;100713.47;5101488;27;45431;-76
2022/09/12 16:19:47;;;;;;;;;1.67;1.67;;;;;28.67;43.19;100710.34;5090192;27;45530;-79
2022/09/12 16:22:12;;;;;;;;;3.33;2.67;;;;;28.76;42.64;100716.47;5097205;27;45542;-80
2022/09/12 16:24:39;;;;;;;;;2.00;2.00;;;;;28.82;42.21;100711.22;5096035;27;59588;-77
2022/09/12 16:27:04;;;;;;;;;2.67;2.33;;;;;28.84;41.76;100711.84;5088993;27;45488;-76
2022/09/12 16:29:30;;;;;;;;;2.33;2.33;;;;;28.80;41.57;100706.81;5093770;27;45288;-75
2022/09/12 16:31:55;;;;;;;;;2.00;2.00;;;;;28.77;42.10;100704.50;5090342;27;45532;-76
2022/09/12 16:34:20;;;;;;;;;2.33;2.33;;;;;28.77;42.22;100704.50;5095117;27;45424;-76
2022/09/12 16:36:46;;;;;;;;;4.67;3.33;;;;;28.76;42.24;100702.81;5091850;27;55428;-76
2022/09/12 16:39:11;;;;;;;;;2.67;2.67;;;;;28.76;41.71;100702.81;5096399;27;45474;-76
2022/09/12 16:41:36;;;;;;;;;3.00;3.00;;;;;28.77;41.99;100703.66;5093171;27;45414;-76
2022/09/12 16:44:02;;;;;;;;;2.00;2.00;;;;;28.76;42.15;100694.63;5085591;27;46312;-77
2022/09/12 16:46:28;;;;;;;;;2.67;2.67;;;;;28.80;42.02;100697.78;5084438;27;45505;-76
2022/09/12 16:48:55;;;;;;;;;2.00;1.67;;;;;28.83;41.53;100693.78;5088638;27;45371;-76
2022/09/12 16:51:27;;;;;;;;;1.33;1.33;;;;;28.84;42.26;100693.59;5085774;27;45533;-81
2022/09/12 16:53:53;;;;;;;;;3.67;3.00;;;;;28.85;41.43;100689.81;5087629;27;46641;-80
2022/09/12 16:56:19;;;;;;;;;3.00;2.00;;;;;28.84;41.68;100698.19;5092199;27;45448;-80
2022/09/12 16:58:44;;;;;;;;;2.33;2.33;;;;;28.84;41.86;100690.84;5093460;27;45484;-81
2022/09/12 17:01:14;;;;;;;;;1.00;1.00;;;;;28.84;42.46;100692.72;5086949;27;45600;-78
2022/09/12 17:03:39;;;;;;;;;4.00;3.67;;;;;28.83;42.13;100686.44;5088424;27;46232;-78
2022/09/12 17:06:17;;;;;;;;;5.00;3.00;;;;;28.84;41.98;100677.19;5095849;27;45393;-79
2022/09/12 17:08:45;;;;;;;;;2.67;2.67;;;;;28.85;42.27;100680.78;5095321;27;45555;-83
2022/09/12 17:11:14;;;;;;;;;3.00;3.00;;;;;28.85;42.22;100683.53;5093353;27;45300;-80
2022/09/12 17:13:40;;;;;;;;;2.00;2.00;;;;;28.86;41.81;100674.28;5079174;27;45652;-80
2022/09/12 17:16:07;;;;;;;;;4.00;3.00;;;;;28.85;42.69;100669.88;5082667;27;45283;-80
2022/09/12 17:18:33;;;;;;;;;15.00;10.67;;;;;28.84;42.56;100666.28;5096774;27;45468;-80
2022/09/12 17:20:58;;;;;;;;;8.67;8.67;;;;;28.85;42.49;100667.13;5092807;27;45448;-80
2022/09/12 17:23:23;;;;;;;;;9.00;6.00;;;;;28.86;42.67;100666.06;5082045;27;45965;-82
2022/09/12 17:25:53;;;;;;;;;7.00;7.00;;;;;28.84;43.51;100660.81;5090094;27;45876;-90
2022/09/12 17:28:19;;;;;;;;;4.33;4.00;;;;;28.87;41.73;100663.16;5089740;27;45531;-94
2022/09/12 17:30:45;;;;;;;;;4.00;3.33;;;;;28.91;41.28;100669.91;5083749;27;45585;-91
2022/09/12 17:33:11;;;;;;;;;6.00;5.00;;;;;28.94;41.68;100674.13;5086172;27;45452;-90
2022/09/12 17:35:38;;;;;;;;;8.00;5.00;;;;;28.95;41.26;100675.78;5095502;27;45405;-90
2022/09/12 17:38:04;;;;;;;;;6.00;5.00;;;;;28.95;40.80;100670.34;5087711;27;45689;-91
2022/09/12 17:40:30;;;;;;;;;6.33;4.67;;;;;28.93;41.70;100677.88;5079901;27;45467;-91
2022/09/12 17:42:56;;;;;;;;;6.33;5.00;;;;;28.90;41.68;100681.88;5094592;27;46039;-91
2022/09/12 17:45:21;;;;;;;;;4.00;3.33;;;;;28.87;41.37;100673.22;5082071;27;45501;-89
2022/09/12 17:47:47;;;;;;;;;6.00;5.00;;;;;28.82;41.34;100665.66;5091149;27;45373;-88
2022/09/12 17:50:12;;;;;;;;;3.67;3.67;;;;;28.79;41.14;100666.91;5093559;27;46354;-89
2022/09/12 17:52:37;;;;;;;;;4.00;4.00;;;;;28.76;41.41;100667.31;5092144;27;45934;-92
2022/09/12 17:55:03;;;;;;;;;4.67;4.00;;;;;28.73;41.29;100669.63;5095295;27;45642;-93
2022/09/12 17:57:28;;;;;;;;;4.33;2.67;;;;;28.70;41.13;100664.56;5087289;27;45465;-92
2022/09/12 17:59:53;;;;;;;;;5.00;5.00;;;;;28.67;40.83;100672.13;5091264;27;45453;-92
2022/09/12 18:02:19;;;;;;;;;3.33;3.33;;;;;28.64;41.49;100675.25;5096924;27;54673;-91
2022/09/12 18:04:45;;;;;;;;;3.00;3.00;;;;;28.62;40.83;100671.91;5085456;27;45481;-94
2022/09/12 18:07:17;;;;;;;;;6.00;4.00;;;;;28.60;41.56;100657.59;5094367;27;45403;-83
2022/09/12 18:09:43;;;;;;;;;5.00;5.00;;;;;28.59;40.91;100655.91;5094693;27;45386;-86
2022/09/12 18:12:09;;;;;;;;;6.00;4.33;;;;;28.58;41.03;100653.38;5108616;27;46390;-88
2022/09/12 18:14:35;;;;;;;;;3.00;3.00;;;;;28.56;41.11;100653.59;5096118;27;45414;-88
2022/09/12 18:17:00;;;;;;;;;4.67;4.67;;;;;28.55;41.48;100657.38;5103976;27;45580;-88
2022/09/12 18:19:26;;;;;;;;;4.33;3.00;;;;;28.54;41.42;100655.69;5093731;27;45382;-81